createdAt,value
2018-12-04T00:00:04.015Z,40.08
2018-12-04T00:01:04.644Z,39.32
2018-12-04T00:02:03.754Z,39.22
2018-12-04T00:03:03.623Z,39.13
2018-12-04T00:04:03.491Z,38.84
2018-12-04T00:05:03.359Z,38.46
2018-12-04T00:06:03.233Z,38.65
2018-12-04T00:07:03.099Z,38.84
2018-12-04T00:08:02.970Z,39.41
2018-12-04T00:09:02.838Z,40.64
2018-12-04T00:10:02.707Z,41.88
2018-12-04T00:11:02.577Z,42.25
2018-12-04T00:12:02.449Z,42.16
2018-12-04T00:13:02.317Z,40.83
2018-12-04T00:14:02.185Z,40.45
2018-12-04T00:15:02.054Z,39.60
2018-12-04T00:16:01.927Z,39.41
2018-12-04T00:17:01.793Z,39.41
2018-12-04T00:18:01.663Z,39.32
2018-12-04T00:19:01.533Z,38.94
2018-12-04T00:20:01.410Z,38.84
2018-12-04T00:21:01.271Z,38.46
2018-12-04T00:22:01.142Z,38.18
2018-12-04T00:23:01.014Z,38.09
2018-12-04T00:24:00.881Z,37.71
2018-12-04T00:25:00.749Z,37.33
2018-12-04T00:26:00.622Z,37.52
2018-12-04T00:27:00.490Z,37.61
2018-12-04T00:28:00.359Z,37.33
2018-12-04T00:29:00.233Z,37.71
2018-12-04T00:30:00.097Z,37.33
2018-12-04T00:30:59.971Z,37.33
2018-12-04T00:31:59.835Z,37.33
2018-12-04T00:32:59.705Z,37.52
2018-12-04T00:33:59.577Z,37.71
2018-12-04T00:34:59.446Z,37.90
2018-12-04T00:35:59.314Z,37.71
2018-12-04T00:36:59.182Z,37.61
2018-12-04T00:37:59.053Z,37.52
2018-12-04T00:38:58.925Z,37.14
2018-12-04T00:39:58.793Z,36.95
2018-12-04T00:40:58.660Z,36.76
2018-12-04T00:41:58.532Z,36.57
2018-12-04T00:42:58.400Z,36.38
2018-12-04T00:43:58.272Z,36.38
2018-12-04T00:44:58.140Z,36.76
2018-12-04T00:45:58.011Z,36.95
2018-12-04T00:46:57.880Z,36.95
2018-12-04T00:47:57.760Z,36.85
2018-12-04T00:48:57.620Z,36.76
2018-12-04T00:49:57.489Z,36.76
2018-12-04T00:50:57.359Z,36.95
2018-12-04T00:51:57.228Z,37.23
2018-12-04T00:52:57.096Z,37.23
2018-12-04T00:53:56.967Z,36.95
2018-12-04T00:54:56.838Z,36.95
2018-12-04T00:55:56.708Z,36.85
2018-12-04T00:56:56.576Z,36.47
2018-12-04T00:57:56.448Z,36.00
2018-12-04T00:58:56.315Z,35.81
2018-12-04T00:59:56.189Z,36.00
2018-12-04T01:00:56.054Z,35.72
2018-12-04T01:01:55.923Z,35.15
2018-12-04T01:02:55.793Z,35.15
2018-12-04T01:03:55.664Z,34.96
2018-12-04T01:04:55.530Z,35.05
2018-12-04T01:05:55.404Z,34.96
2018-12-04T01:06:55.271Z,34.96
2018-12-04T01:07:55.139Z,35.05
2018-12-04T01:08:55.008Z,35.05
2018-12-04T01:09:54.930Z,34.86
2018-12-04T01:10:54.748Z,34.67
2018-12-04T01:11:54.618Z,34.86
2018-12-04T01:12:54.486Z,35.05
2018-12-04T01:13:54.356Z,34.77
2018-12-04T01:14:54.227Z,35.53
2018-12-04T01:15:54.096Z,35.72
2018-12-04T01:16:53.963Z,35.43
2018-12-04T01:17:53.833Z,35.91
2018-12-04T01:18:53.703Z,35.72
2018-12-04T01:19:53.572Z,35.72
2018-12-04T01:20:53.443Z,35.91
2018-12-04T01:21:53.310Z,36.47
2018-12-04T01:22:53.180Z,37.90
2018-12-04T01:23:53.052Z,38.18
2018-12-04T01:24:52.918Z,38.94
2018-12-04T01:25:52.786Z,38.84
2018-12-04T01:26:52.656Z,38.65
2018-12-04T01:27:52.524Z,38.37
2018-12-04T01:28:52.394Z,37.90
2018-12-04T01:29:52.265Z,37.42
2018-12-04T01:30:52.133Z,36.76
2018-12-04T01:31:52.001Z,36.76
2018-12-04T01:32:51.869Z,36.85
2018-12-04T01:33:51.739Z,36.29
2018-12-04T01:34:51.609Z,36.00
2018-12-04T01:35:51.478Z,35.81
2018-12-04T01:36:51.352Z,35.81
2018-12-04T01:37:51.217Z,35.91
2018-12-04T01:38:51.087Z,35.81
2018-12-04T01:39:50.958Z,36.66
2018-12-04T01:40:50.828Z,36.57
2018-12-04T01:41:50.694Z,36.38
2018-12-04T01:42:50.567Z,36.10
2018-12-04T01:43:50.434Z,36.00
2018-12-04T01:44:50.303Z,35.81
2018-12-04T01:45:50.173Z,35.81
2018-12-04T01:46:50.045Z,35.72
2018-12-04T01:47:49.913Z,36.00
2018-12-04T01:48:49.782Z,35.72
2018-12-04T01:49:49.650Z,36.10
2018-12-04T01:50:49.521Z,35.91
2018-12-04T01:51:49.408Z,35.62
2018-12-04T01:52:49.262Z,35.62
2018-12-04T01:53:49.132Z,35.62
2018-12-04T01:54:48.999Z,35.15
2018-12-04T01:55:48.870Z,35.81
2018-12-04T01:56:48.739Z,35.72
2018-12-04T01:57:48.608Z,35.81
2018-12-04T01:58:48.478Z,35.53
2018-12-04T01:59:48.348Z,35.91
2018-12-04T02:00:48.219Z,36.19
2018-12-04T02:01:48.086Z,36.38
2018-12-04T02:02:47.958Z,37.14
2018-12-04T02:03:47.829Z,37.33
2018-12-04T02:04:47.698Z,37.80
2018-12-04T02:05:47.566Z,38.09
2018-12-04T02:06:47.440Z,38.28
2018-12-04T02:07:47.307Z,38.28
2018-12-04T02:08:47.180Z,38.56
2018-12-04T02:09:47.049Z,38.84
2018-12-04T02:10:46.915Z,39.79
2018-12-04T02:11:46.785Z,40.93
2018-12-04T02:12:46.659Z,42.25
2018-12-04T02:13:46.526Z,43.96
2018-12-04T02:14:46.396Z,44.53
2018-12-04T02:15:46.271Z,44.72
2018-12-04T02:16:46.135Z,44.53
2018-12-04T02:17:46.006Z,43.68
2018-12-04T02:18:45.876Z,43.58
2018-12-04T02:19:45.744Z,42.63
2018-12-04T02:20:45.613Z,42.33
2018-12-04T02:21:45.484Z,42.16
2018-12-04T02:22:45.353Z,41.85
2018-12-04T02:23:45.222Z,40.81
2018-12-04T02:24:45.090Z,39.87
2018-12-04T02:25:44.959Z,41.09
2018-12-04T02:26:44.829Z,41.09
2018-12-04T02:27:44.705Z,40.44
2018-12-04T02:28:44.569Z,40.53
2018-12-04T02:29:44.442Z,39.58
2018-12-04T02:30:44.307Z,39.11
2018-12-04T02:31:44.186Z,39.20
2018-12-04T02:32:44.047Z,39.20
2018-12-04T02:33:43.913Z,38.35
2018-12-04T02:34:43.802Z,38.07
2018-12-04T02:35:43.652Z,38.07
2018-12-04T02:36:43.519Z,37.21
2018-12-04T02:37:43.389Z,37.21
2018-12-04T02:38:43.258Z,37.21
2018-12-04T02:39:43.128Z,37.40
2018-12-04T02:40:42.994Z,37.31
2018-12-04T02:41:42.864Z,36.83
2018-12-04T02:42:42.731Z,36.93
2018-12-04T02:43:42.601Z,36.93
2018-12-04T02:44:42.469Z,37.02
2018-12-04T02:45:42.337Z,36.93
2018-12-04T02:46:42.209Z,36.93
2018-12-04T02:47:42.077Z,37.02
2018-12-04T02:48:41.943Z,36.83
2018-12-04T02:49:41.818Z,36.65
2018-12-04T02:50:41.688Z,36.83
2018-12-04T02:51:41.550Z,36.83
2018-12-04T02:52:41.419Z,37.02
2018-12-04T02:53:41.287Z,36.74
2018-12-04T02:54:41.165Z,37.02
2018-12-04T02:55:41.024Z,36.65
2018-12-04T02:56:40.894Z,37.02
2018-12-04T02:57:40.766Z,36.74
2018-12-04T02:58:40.629Z,36.27
2018-12-04T02:59:40.503Z,36.46
2018-12-04T03:00:40.369Z,36.65
2018-12-04T03:01:40.241Z,37.31
2018-12-04T03:02:40.107Z,37.12
2018-12-04T03:03:39.975Z,37.21
2018-12-04T03:04:39.844Z,37.97
2018-12-04T03:05:39.711Z,38.07
2018-12-04T03:06:39.582Z,37.97
2018-12-04T03:07:39.450Z,37.97
2018-12-04T03:08:39.319Z,37.88
2018-12-04T03:09:39.190Z,38.07
2018-12-04T03:10:39.057Z,38.35
2018-12-04T03:11:38.925Z,38.35
2018-12-04T03:12:38.793Z,37.97
2018-12-04T03:13:38.664Z,37.97
2018-12-04T03:14:38.532Z,37.78
2018-12-04T03:15:38.401Z,37.59
2018-12-04T03:16:38.269Z,37.69
2018-12-04T03:17:38.136Z,37.50
2018-12-04T03:18:38.012Z,37.88
2018-12-04T03:19:37.955Z,37.69
2018-12-04T03:20:37.756Z,38.07
2018-12-04T03:21:37.613Z,38.07
2018-12-04T03:22:37.480Z,38.07
2018-12-04T03:23:37.353Z,37.97
2018-12-04T03:24:37.218Z,38.16
2018-12-04T03:25:37.087Z,37.88
2018-12-04T03:26:36.958Z,37.97
2018-12-04T03:27:36.824Z,38.07
2018-12-04T03:28:36.696Z,37.88
2018-12-04T03:29:36.562Z,37.88
2018-12-04T03:30:36.431Z,37.69
2018-12-04T03:31:36.298Z,37.88
2018-12-04T03:32:36.173Z,37.78
2018-12-04T03:33:36.057Z,37.88
2018-12-04T03:34:35.902Z,37.69
2018-12-04T03:35:35.773Z,37.59
2018-12-04T03:36:35.641Z,37.21
2018-12-04T03:37:35.510Z,37.88
2018-12-04T03:38:35.380Z,37.59
2018-12-04T03:39:35.247Z,37.88
2018-12-04T03:40:35.117Z,38.07
2018-12-04T03:41:34.984Z,38.54
2018-12-04T03:42:34.853Z,38.64
2018-12-04T03:43:34.721Z,38.73
2018-12-04T03:44:34.588Z,38.82
2018-12-04T03:45:34.461Z,38.82
2018-12-04T03:46:34.329Z,38.64
2018-12-04T03:47:34.196Z,38.73
2018-12-04T03:48:34.066Z,38.64
2018-12-04T03:49:33.934Z,38.54
2018-12-04T03:50:33.803Z,38.54
2018-12-04T03:51:33.670Z,38.26
2018-12-04T03:52:33.540Z,38.07
2018-12-04T03:53:33.411Z,38.07
2018-12-04T03:54:33.282Z,37.88
2018-12-04T03:55:34.411Z,37.50
2018-12-04T03:56:33.015Z,37.59
2018-12-04T03:57:32.884Z,37.12
2018-12-04T03:58:32.754Z,37.50
2018-12-04T03:59:32.622Z,37.50
2018-12-04T04:00:32.490Z,37.12
2018-12-04T04:01:32.360Z,37.59
2018-12-04T04:02:32.227Z,37.59
2018-12-04T04:03:32.097Z,37.50
2018-12-04T04:04:31.965Z,37.78
2018-12-04T04:05:31.833Z,37.69
2018-12-04T04:06:31.704Z,37.78
2018-12-04T04:07:31.571Z,37.97
2018-12-04T04:08:31.441Z,38.07
2018-12-04T04:09:31.308Z,38.26
2018-12-04T04:10:31.180Z,38.54
2018-12-04T04:11:31.049Z,38.54
2018-12-04T04:12:30.920Z,38.73
2018-12-04T04:13:30.787Z,38.73
2018-12-04T04:14:30.655Z,39.11
2018-12-04T04:15:30.524Z,39.11
2018-12-04T04:16:30.392Z,39.29
2018-12-04T04:17:30.262Z,39.58
2018-12-04T04:18:30.135Z,39.77
2018-12-04T04:19:29.999Z,39.96
2018-12-04T04:20:29.865Z,40.51
2018-12-04T04:21:29.736Z,40.70
2018-12-04T04:22:29.613Z,40.13
2018-12-04T04:23:29.473Z,40.22
2018-12-04T04:24:29.342Z,40.22
2018-12-04T04:25:29.216Z,40.03
2018-12-04T04:26:29.079Z,39.94
2018-12-04T04:27:28.948Z,40.32
2018-12-04T04:28:28.815Z,40.32
2018-12-04T04:29:28.696Z,40.13
2018-12-04T04:30:28.557Z,40.22
2018-12-04T04:31:28.422Z,39.87
2018-12-04T04:32:28.299Z,39.77
2018-12-04T04:33:28.158Z,39.58
2018-12-04T04:34:28.026Z,39.68
2018-12-04T04:35:27.901Z,39.77
2018-12-04T04:36:27.766Z,39.49
2018-12-04T04:37:27.631Z,39.68
2018-12-04T04:38:27.500Z,39.58
2018-12-04T04:39:27.368Z,39.68
2018-12-04T04:40:27.241Z,39.68
2018-12-04T04:41:27.107Z,39.58
2018-12-04T04:42:26.980Z,39.58
2018-12-04T04:43:26.845Z,39.58
2018-12-04T04:44:26.710Z,39.77
2018-12-04T04:45:26.579Z,39.77
2018-12-04T04:46:26.450Z,39.87
2018-12-04T04:47:26.321Z,40.06
2018-12-04T04:48:26.186Z,40.15
2018-12-04T04:49:26.054Z,40.06
2018-12-04T04:50:25.930Z,40.44
2018-12-04T04:51:25.799Z,40.53
2018-12-04T04:52:25.669Z,40.63
2018-12-04T04:53:25.533Z,41.00
2018-12-04T04:54:25.403Z,41.38
2018-12-04T04:55:25.276Z,40.63
2018-12-04T04:56:25.145Z,41.19
2018-12-04T04:57:25.011Z,41.28
2018-12-04T04:58:24.875Z,41.47
2018-12-04T04:59:24.745Z,41.57
2018-12-04T05:00:24.610Z,42.11
2018-12-04T05:01:24.479Z,42.11
2018-12-04T05:02:24.347Z,42.02
2018-12-04T05:03:24.216Z,41.83
2018-12-04T05:04:24.088Z,41.93
2018-12-04T05:05:23.958Z,41.93
2018-12-04T05:06:23.822Z,41.83
2018-12-04T05:07:23.691Z,42.21
2018-12-04T05:08:23.559Z,42.59
2018-12-04T05:09:23.430Z,42.59
2018-12-04T05:10:23.298Z,42.78
2018-12-04T05:11:23.168Z,42.88
2018-12-04T05:12:23.035Z,43.07
2018-12-04T05:13:22.902Z,43.16
2018-12-04T05:14:22.771Z,42.88
2018-12-04T05:15:22.642Z,43.07
2018-12-04T05:16:22.514Z,43.07
2018-12-04T05:17:22.432Z,42.97
2018-12-04T05:18:22.249Z,43.07
2018-12-04T05:19:22.117Z,43.26
2018-12-04T05:20:21.984Z,43.16
2018-12-04T05:21:21.853Z,43.26
2018-12-04T05:22:21.722Z,42.97
2018-12-04T05:23:21.591Z,42.88
2018-12-04T05:24:21.459Z,42.50
2018-12-04T05:25:21.330Z,42.59
2018-12-04T05:26:21.196Z,42.59
2018-12-04T05:27:21.066Z,42.33
2018-12-04T05:28:20.938Z,42.33
2018-12-04T05:29:20.808Z,42.33
2018-12-04T05:30:20.671Z,42.43
2018-12-04T05:31:20.541Z,42.23
2018-12-04T05:32:20.408Z,42.33
2018-12-04T05:33:20.278Z,42.52
2018-12-04T05:34:20.145Z,42.61
2018-12-04T05:35:20.015Z,42.43
2018-12-04T05:36:19.882Z,42.52
2018-12-04T05:37:19.753Z,42.71
2018-12-04T05:38:19.620Z,42.71
2018-12-04T05:39:19.490Z,43.08
2018-12-04T05:40:20.376Z,43.18
2018-12-04T05:41:19.227Z,43.75
2018-12-04T05:42:19.094Z,43.94
2018-12-04T05:43:18.961Z,44.13
2018-12-04T05:44:18.831Z,44.03
2018-12-04T05:45:18.702Z,43.84
2018-12-04T05:46:18.569Z,43.75
2018-12-04T05:47:18.437Z,43.84
2018-12-04T05:48:18.303Z,43.94
2018-12-04T05:49:18.174Z,43.46
2018-12-04T05:50:18.041Z,42.99
2018-12-04T05:51:17.910Z,43.08
2018-12-04T05:52:17.782Z,42.99
2018-12-04T05:53:17.650Z,43.08
2018-12-04T05:54:17.516Z,42.99
2018-12-04T05:55:17.385Z,43.08
2018-12-04T05:56:17.253Z,43.37
2018-12-04T05:57:17.124Z,43.27
2018-12-04T05:58:16.991Z,43.08
2018-12-04T05:59:16.859Z,42.99
2018-12-04T06:00:16.731Z,42.71
2018-12-04T06:01:16.597Z,42.71
2018-12-04T06:02:16.465Z,42.61
2018-12-04T06:03:16.338Z,42.90
2018-12-04T06:04:16.214Z,42.80
2018-12-04T06:05:16.073Z,43.08
2018-12-04T06:06:15.946Z,42.99
2018-12-04T06:07:15.812Z,43.46
2018-12-04T06:08:15.680Z,43.84
2018-12-04T06:09:15.549Z,44.22
2018-12-04T06:10:15.417Z,45.17
2018-12-04T06:11:15.484Z,45.45
2018-12-04T06:12:15.156Z,45.93
2018-12-04T06:13:15.024Z,46.78
2018-12-04T06:14:14.893Z,46.50
2018-12-04T06:15:14.778Z,47.34
2018-12-04T06:16:14.632Z,47.82
2018-12-04T06:17:14.502Z,48.39
2018-12-04T06:18:14.373Z,47.91
2018-12-04T06:19:14.240Z,48.58
2018-12-04T06:20:14.108Z,48.49
2018-12-04T06:21:13.978Z,48.86
2018-12-04T06:22:13.845Z,48.68
2018-12-04T06:23:13.718Z,47.82
2018-12-04T06:24:13.586Z,47.25
2018-12-04T06:25:13.464Z,47.25
2018-12-04T06:26:13.326Z,46.50
2018-12-04T06:27:13.193Z,46.02
2018-12-04T06:28:13.061Z,46.21
2018-12-04T06:29:12.933Z,45.83
2018-12-04T06:30:12.801Z,45.74
2018-12-04T06:31:12.670Z,45.64
2018-12-04T06:32:12.539Z,45.55
2018-12-04T06:33:12.412Z,45.93
2018-12-04T06:34:12.279Z,46.31
2018-12-04T06:35:12.151Z,46.31
2018-12-04T06:36:12.017Z,46.50
2018-12-04T06:37:11.888Z,46.59
2018-12-04T06:38:11.758Z,47.16
2018-12-04T06:39:11.626Z,46.88
2018-12-04T06:40:11.494Z,47.16
2018-12-04T06:41:11.365Z,47.44
2018-12-04T06:42:11.237Z,48.68
2018-12-04T06:43:11.104Z,48.77
2018-12-04T06:44:10.972Z,49.33
2018-12-04T06:45:10.841Z,50.09
2018-12-04T06:46:10.716Z,50.38
2018-12-04T06:47:10.582Z,50.28
2018-12-04T06:48:10.449Z,50.00
2018-12-04T06:49:10.323Z,48.96
2018-12-04T06:50:10.193Z,48.68
2018-12-04T06:51:10.060Z,47.82
2018-12-04T06:52:09.928Z,47.44
2018-12-04T06:53:09.800Z,47.25
2018-12-04T06:54:09.666Z,47.82
2018-12-04T06:55:09.535Z,48.58
2018-12-04T06:56:09.413Z,48.49
2018-12-04T06:57:09.276Z,49.05
2018-12-04T06:58:09.145Z,49.05
2018-12-04T06:59:09.015Z,49.24
2018-12-04T07:00:08.882Z,48.77
2018-12-04T07:01:08.758Z,48.58
2018-12-04T07:02:08.621Z,48.58
2018-12-04T07:03:08.492Z,48.20
2018-12-04T07:04:08.360Z,47.44
2018-12-04T07:05:08.228Z,46.59
2018-12-04T07:06:08.098Z,46.69
2018-12-04T07:07:07.970Z,46.50
2018-12-04T07:08:07.837Z,45.93
2018-12-04T07:09:07.704Z,46.12
2018-12-04T07:10:07.574Z,46.21
2018-12-04T07:11:07.443Z,46.12
2018-12-04T07:12:07.312Z,45.93
2018-12-04T07:13:07.191Z,45.55
2018-12-04T07:14:07.050Z,45.64
2018-12-04T07:15:06.919Z,45.74
2018-12-04T07:16:06.787Z,45.74
2018-12-04T07:17:06.671Z,45.45
2018-12-04T07:18:06.527Z,45.26
2018-12-04T07:19:06.394Z,45.36
2018-12-04T07:20:06.265Z,45.74
2018-12-04T07:21:06.137Z,45.74
2018-12-04T07:22:06.003Z,45.93
2018-12-04T07:23:05.920Z,46.21
2018-12-04T07:24:05.740Z,46.12
2018-12-04T07:25:05.611Z,46.12
2018-12-04T07:26:05.483Z,46.21
2018-12-04T07:27:05.348Z,45.74
2018-12-04T07:28:05.215Z,45.07
2018-12-04T07:29:05.085Z,45.17
2018-12-04T07:30:04.954Z,45.17
2018-12-04T07:31:04.823Z,44.70
2018-12-04T07:32:04.691Z,44.60
2018-12-04T07:33:04.561Z,44.34
2018-12-04T07:34:04.429Z,43.94
2018-12-04T07:35:04.299Z,44.06
2018-12-04T07:36:04.170Z,43.84
2018-12-04T07:37:04.036Z,43.84
2018-12-04T07:38:03.906Z,44.24
2018-12-04T07:39:03.777Z,43.94
2018-12-04T07:40:03.645Z,43.94
2018-12-04T07:41:03.513Z,44.13
2018-12-04T07:42:03.385Z,43.77
2018-12-04T07:43:03.254Z,44.06
2018-12-04T07:44:03.121Z,43.68
2018-12-04T07:45:02.992Z,43.75
2018-12-04T07:46:02.862Z,43.87
2018-12-04T07:47:02.732Z,43.39
2018-12-04T07:48:02.605Z,43.30
2018-12-04T07:49:02.482Z,43.30
2018-12-04T07:50:02.339Z,43.20
2018-12-04T07:51:02.208Z,43.49
2018-12-04T07:52:02.079Z,43.49
2018-12-04T07:53:01.959Z,43.39
2018-12-04T07:54:01.817Z,43.87
2018-12-04T07:55:01.687Z,43.77
2018-12-04T07:56:02.365Z,43.77
2018-12-04T07:57:01.424Z,43.87
2018-12-04T07:58:01.294Z,43.87
2018-12-04T07:59:01.164Z,43.87
2018-12-04T08:00:01.033Z,43.96
2018-12-04T08:01:00.905Z,44.06
2018-12-04T08:02:00.770Z,44.15
2018-12-04T08:03:00.641Z,44.91
2018-12-04T08:04:00.509Z,45.19
2018-12-04T08:05:00.379Z,45.95
2018-12-04T08:06:00.248Z,45.95
2018-12-04T08:07:00.122Z,46.33
2018-12-04T08:07:59.987Z,46.33
2018-12-04T08:08:59.859Z,46.12
2018-12-04T08:09:59.726Z,46.23
2018-12-04T08:10:59.597Z,46.33
2018-12-04T08:11:59.465Z,46.90
2018-12-04T08:12:59.335Z,47.09
2018-12-04T08:13:59.206Z,47.18
2018-12-04T08:14:59.076Z,47.18
2018-12-04T08:15:58.942Z,47.28
2018-12-04T08:16:58.815Z,46.61
2018-12-04T08:17:58.685Z,46.61
2018-12-04T08:18:58.554Z,46.04
2018-12-04T08:19:58.421Z,46.33
2018-12-04T08:20:58.290Z,45.86
2018-12-04T08:21:58.159Z,46.14
2018-12-04T08:22:58.032Z,46.33
2018-12-04T08:23:57.899Z,46.04
2018-12-04T08:24:57.769Z,46.23
2018-12-04T08:25:57.638Z,46.23
2018-12-04T08:26:57.509Z,46.14
2018-12-04T08:27:57.377Z,46.52
2018-12-04T08:28:57.246Z,47.18
2018-12-04T08:29:57.116Z,47.28
2018-12-04T08:30:56.985Z,47.09
2018-12-04T08:31:56.856Z,47.09
2018-12-04T08:32:56.727Z,46.61
2018-12-04T08:33:56.594Z,46.52
2018-12-04T08:34:56.473Z,46.80
2018-12-04T08:35:56.332Z,46.59
2018-12-04T08:36:56.202Z,50.00
2018-12-04T08:37:56.070Z,51.80
2018-12-04T08:38:55.941Z,52.37
2018-12-04T08:39:55.810Z,53.41
2018-12-04T08:40:55.680Z,55.02
2018-12-04T08:41:55.548Z,55.77
2018-12-04T08:42:55.417Z,54.35
2018-12-04T08:43:55.287Z,54.16
2018-12-04T08:44:55.158Z,54.74
2018-12-04T08:45:55.025Z,55.02
2018-12-04T08:46:54.894Z,57.39
2018-12-04T08:47:54.762Z,60.19
2018-12-04T08:48:54.633Z,60.38
2018-12-04T08:49:54.501Z,59.72
2018-12-04T08:50:54.371Z,58.78
2018-12-04T08:51:54.240Z,57.92
2018-12-04T08:52:54.109Z,56.70
2018-12-04T08:53:53.980Z,56.03
2018-12-04T08:54:53.847Z,55.75
2018-12-04T08:55:53.717Z,55.18
2018-12-04T08:56:53.586Z,55.46
2018-12-04T08:57:53.454Z,55.65
2018-12-04T08:58:53.323Z,56.13
2018-12-04T08:59:53.193Z,56.15
2018-12-04T09:00:53.060Z,56.13
2018-12-04T09:01:52.931Z,55.75
2018-12-04T09:02:52.802Z,55.77
2018-12-04T09:03:52.670Z,55.68
2018-12-04T09:04:52.538Z,55.49
2018-12-04T09:05:52.406Z,55.68
2018-12-04T09:06:52.303Z,55.77
2018-12-04T09:07:52.145Z,56.34
2018-12-04T09:08:52.057Z,59.47
2018-12-04T09:09:51.885Z,62.02
2018-12-04T09:10:51.753Z,64.39
2018-12-04T09:11:51.621Z,65.44
2018-12-04T09:12:51.501Z,66.95
2018-12-04T09:13:51.360Z,68.90
2018-12-04T09:14:51.230Z,69.00
2018-12-04T09:15:51.099Z,68.71
2018-12-04T09:16:50.969Z,67.86
2018-12-04T09:17:50.837Z,67.05
2018-12-04T09:18:50.714Z,66.57
2018-12-04T09:19:50.597Z,66.19
2018-12-04T09:20:50.467Z,65.72
2018-12-04T09:21:50.348Z,66.19
2018-12-04T09:22:50.211Z,66.67
2018-12-04T09:23:50.123Z,67.24
2018-12-04T09:24:49.930Z,67.24
2018-12-04T09:25:49.815Z,67.24
2018-12-04T09:26:49.661Z,68.65
2018-12-04T09:27:49.549Z,70.93
2018-12-04T09:28:49.410Z,75.95
2018-12-04T09:29:49.281Z,77.56
2018-12-04T09:30:49.141Z,78.88
2018-12-04T09:31:49.005Z,79.74
2018-12-04T09:32:48.876Z,81.63
2018-12-04T09:33:48.748Z,82.10
2018-12-04T09:34:48.619Z,84.09
2018-12-04T09:35:48.483Z,84.38
2018-12-04T09:36:48.353Z,83.14
2018-12-04T09:37:48.226Z,81.82
2018-12-04T09:38:48.094Z,79.45
2018-12-04T09:39:47.961Z,77.65
2018-12-04T09:40:47.834Z,75.95
2018-12-04T09:41:47.703Z,77.56
2018-12-04T09:42:47.570Z,77.56
2018-12-04T09:43:47.439Z,79.74
2018-12-04T09:44:47.309Z,80.30
2018-12-04T09:45:47.181Z,80.91
2018-12-04T09:46:47.050Z,80.34
2018-12-04T09:47:46.920Z,81.67
2018-12-04T09:48:46.794Z,83.75
2018-12-04T09:49:46.661Z,85.36
2018-12-04T09:50:46.529Z,85.84
2018-12-04T09:51:46.398Z,85.36
2018-12-04T09:52:46.269Z,87.45
2018-12-04T09:53:51.906Z,90.39
2018-12-04T09:54:46.007Z,93.23
2018-12-04T09:55:45.877Z,95.50
2018-12-04T09:56:45.747Z,96.83
2018-12-04T09:57:45.616Z,95.22
2018-12-04T09:58:45.488Z,95.31
2018-12-04T09:59:45.357Z,95.12
2018-12-04T10:00:45.226Z,95.17
2018-12-04T10:01:45.098Z,96.64
2018-12-04T10:02:44.969Z,98.87
2018-12-04T10:03:44.838Z,99.99
2018-12-04T10:04:44.708Z,99.99
2018-12-04T10:05:44.579Z,98.96
2018-12-04T10:06:44.452Z,97.30
2018-12-04T10:07:44.320Z,99.29
2018-12-04T10:08:44.189Z,99.99
2018-12-04T10:09:44.060Z,99.99
2018-12-04T10:10:43.930Z,99.99
2018-12-04T10:11:43.800Z,99.39
2018-12-04T10:12:43.699Z,98.25
2018-12-04T10:13:43.540Z,96.73
2018-12-04T10:14:43.410Z,96.22
2018-12-04T10:15:43.281Z,94.79
2018-12-04T10:16:43.150Z,98.16
2018-12-04T10:17:43.019Z,99.99
2018-12-04T10:18:47.672Z,99.99
2018-12-04T10:19:42.760Z,99.99
2018-12-04T10:20:42.631Z,97.21
2018-12-04T10:21:42.501Z,89.34
2018-12-04T10:22:42.371Z,85.17
2018-12-04T10:23:42.242Z,84.89
2018-12-04T10:24:42.111Z,83.00
2018-12-04T10:25:41.984Z,80.34
2018-12-04T10:26:41.851Z,79.87
2018-12-04T10:27:41.721Z,82.14
2018-12-04T10:28:41.591Z,85.84
2018-12-04T10:29:41.464Z,84.51
2018-12-04T10:30:41.331Z,91.71
2018-12-04T10:31:41.201Z,90.10
2018-12-04T10:32:41.069Z,88.96
2018-12-04T10:33:40.940Z,86.22
2018-12-04T10:34:40.811Z,91.81
2018-12-04T10:35:40.679Z,88.11
2018-12-04T10:36:40.550Z,82.81
2018-12-04T10:37:40.420Z,81.38
2018-12-04T10:38:40.291Z,85.17
2018-12-04T10:39:40.158Z,88.96
2018-12-04T10:40:40.029Z,89.15
2018-12-04T10:41:39.906Z,88.11
2018-12-04T10:42:39.769Z,88.02
2018-12-04T10:43:39.638Z,82.71
2018-12-04T10:44:39.509Z,78.64
2018-12-04T10:45:39.381Z,76.55
2018-12-04T10:46:39.248Z,80.53
2018-12-04T10:47:39.117Z,84.80
2018-12-04T10:48:38.987Z,85.27
2018-12-04T10:49:39.899Z,86.12
2018-12-04T10:50:38.727Z,85.65
2018-12-04T10:51:38.597Z,86.12
2018-12-04T10:52:38.467Z,86.69
2018-12-04T10:53:38.337Z,86.88
2018-12-04T10:54:38.207Z,87.73
2018-12-04T10:55:38.082Z,86.12
2018-12-04T10:56:37.948Z,88.02
2018-12-04T10:57:37.816Z,87.92
2018-12-04T10:58:37.692Z,86.60
2018-12-04T10:59:37.555Z,86.31
2018-12-04T11:00:37.424Z,88.49
2018-12-04T11:01:37.305Z,86.12
2018-12-04T11:02:37.164Z,86.98
2018-12-04T11:03:37.040Z,88.11
2018-12-04T11:04:36.902Z,85.36
2018-12-04T11:05:36.775Z,84.61
2018-12-04T11:06:36.643Z,87.73
2018-12-04T11:07:36.511Z,90.81
2018-12-04T11:08:36.382Z,89.68
2018-12-04T11:09:36.268Z,84.94
2018-12-04T11:10:36.125Z,82.95
2018-12-04T11:11:35.988Z,80.87
2018-12-04T11:12:35.860Z,78.69
2018-12-04T11:13:35.727Z,76.99
2018-12-04T11:14:35.599Z,76.42
2018-12-04T11:15:35.471Z,75.85
2018-12-04T11:16:35.338Z,76.99
2018-12-04T11:17:35.209Z,78.50
2018-12-04T11:18:35.079Z,81.53
2018-12-04T11:19:34.948Z,82.57
2018-12-04T11:20:34.816Z,86.69
2018-12-04T11:21:34.683Z,88.11
2018-12-04T11:22:34.564Z,89.06
2018-12-04T11:23:34.423Z,88.87
2018-12-04T11:24:34.294Z,93.04
2018-12-04T11:25:34.162Z,95.03
2018-12-04T11:26:34.034Z,91.33
2018-12-04T11:27:33.901Z,90.29
2018-12-04T11:28:33.773Z,90.67
2018-12-04T11:29:33.644Z,92.28
2018-12-04T11:30:33.516Z,94.84
2018-12-04T11:31:33.382Z,99.99
2018-12-04T11:32:33.253Z,99.99
2018-12-04T11:33:33.121Z,99.99
2018-12-04T11:34:32.992Z,97.78
2018-12-04T11:35:32.863Z,95.88
2018-12-04T11:36:32.729Z,98.44
2018-12-04T11:37:32.603Z,97.87
2018-12-04T11:38:32.476Z,99.99
2018-12-04T11:39:32.342Z,99.99
2018-12-04T11:40:32.211Z,99.99
2018-12-04T11:41:32.086Z,99.99
2018-12-04T11:42:31.951Z,99.99
2018-12-04T11:43:31.821Z,99.99
2018-12-04T11:44:31.694Z,96.17
2018-12-04T11:45:31.563Z,99.99
2018-12-04T11:46:31.433Z,98.44
2018-12-04T11:47:31.301Z,97.78
2018-12-04T11:48:31.172Z,99.99
2018-12-04T11:49:31.041Z,95.88
2018-12-04T11:50:30.913Z,97.21
2018-12-04T11:51:30.782Z,99.99
2018-12-04T11:52:30.652Z,98.82
2018-12-04T11:53:30.524Z,96.07
2018-12-04T11:54:30.390Z,96.55
2018-12-04T11:55:30.261Z,99.99
2018-12-04T11:56:30.131Z,99.99
2018-12-04T11:57:30.003Z,99.99
2018-12-04T11:58:29.872Z,99.99
2018-12-04T11:59:29.741Z,99.99
2018-12-04T12:00:29.612Z,99.99
2018-12-04T12:01:29.482Z,99.99
2018-12-04T12:02:29.353Z,99.99
2018-12-04T12:03:29.223Z,98.02
2018-12-04T12:04:29.092Z,99.99
2018-12-04T12:05:28.965Z,99.99
2018-12-04T12:06:28.843Z,99.99
2018-12-04T12:07:28.706Z,99.99
2018-12-04T12:08:28.576Z,99.99
2018-12-04T12:09:28.444Z,99.99
2018-12-04T12:10:28.317Z,99.99
2018-12-04T12:11:28.189Z,99.99
2018-12-04T12:12:28.057Z,99.99
2018-12-04T12:13:27.929Z,99.99
2018-12-04T12:14:27.798Z,99.99
2018-12-04T12:15:27.670Z,99.99
2018-12-04T12:16:27.539Z,99.99
2018-12-04T12:17:27.411Z,99.99
2018-12-04T12:18:27.283Z,99.99
2018-12-04T12:19:27.155Z,99.99
2018-12-04T12:20:27.027Z,99.99
2018-12-04T12:21:26.896Z,99.99
2018-12-04T12:22:26.768Z,99.99
2018-12-04T12:23:26.639Z,99.99
2018-12-04T12:24:26.511Z,99.99
2018-12-04T12:25:26.380Z,99.99
2018-12-04T12:26:26.249Z,99.99
2018-12-04T12:27:26.121Z,99.99
2018-12-04T12:28:25.995Z,99.99
2018-12-04T12:29:25.862Z,99.99
2018-12-04T12:30:25.735Z,99.99
2018-12-04T12:31:25.609Z,99.99
2018-12-04T12:32:25.481Z,99.99
2018-12-04T12:33:25.349Z,99.99
2018-12-04T12:34:25.219Z,99.99
2018-12-04T12:35:25.096Z,99.99
2018-12-04T12:36:24.960Z,99.99
2018-12-04T12:37:24.831Z,99.99
2018-12-04T12:38:24.703Z,99.99
2018-12-04T12:39:24.574Z,99.99
2018-12-04T12:40:24.444Z,99.99
2018-12-04T12:41:24.315Z,99.99
2018-12-04T12:42:24.188Z,99.99
2018-12-04T12:43:24.059Z,99.99
2018-12-04T12:44:23.930Z,99.99
2018-12-04T12:45:23.801Z,99.99
2018-12-04T12:46:23.671Z,99.99
2018-12-04T12:47:23.546Z,99.99
2018-12-04T12:48:23.410Z,99.99
2018-12-04T12:49:23.282Z,99.99
2018-12-04T12:50:23.160Z,99.99